sensor_id;sensor_type;location;lat;lon;timestamp;pressure;altitude;pressure_sealevel;temperature;humidity
64853;BME280;56050;55.558;-4.644;2022-09-17T00:02:20;102462.38;;;11.01;53.91
64853;BME280;56050;55.558;-4.644;2022-09-17T00:04:47;102463.75;;;10.95;53.74
64853;BME280;56050;55.558;-4.644;2022-09-17T00:07:13;102467.03;;;10.89;53.94
64853;BME280;56050;55.558;-4.644;2022-09-17T00:09:38;102472.69;;;10.84;53.99
64853;BME280;56050;55.558;-4.644;2022-09-17T00:12:04;102462.94;;;10.79;54.06
64853;BME280;56050;55.558;-4.644;2022-09-17T00:14:29;102467.44;;;10.75;54.15
64853;BME280;56050;55.558;-4.644;2022-09-17T00:16:55;102464.66;;;10.72;54.07
64853;BME280;56050;55.558;-4.644;2022-09-17T00:19:21;102463.34;;;10.66;54.17
64853;BME280;56050;55.558;-4.644;2022-09-17T00:21:48;102464.72;;;10.59;54.19
64853;BME280;56050;55.558;-4.644;2022-09-17T00:24:14;102472.69;;;10.56;54.27
64853;BME280;56050;55.558;-4.644;2022-09-17T00:26:42;102473.75;;;10.51;54.52
64853;BME280;56050;55.558;-4.644;2022-09-17T00:29:07;102471.72;;;10.48;54.50
64853;BME280;56050;55.558;-4.644;2022-09-17T00:31:33;102472.06;;;10.47;54.46
64853;BME280;56050;55.558;-4.644;2022-09-17T00:34:00;102466.59;;;10.43;54.55
64853;BME280;56050;55.558;-4.644;2022-09-17T00:36:26;102474.56;;;10.40;54.44
64853;BME280;56050;55.558;-4.644;2022-09-17T00:38:53;102467.84;;;10.34;54.54
64853;BME280;56050;55.558;-4.644;2022-09-17T00:41:20;102477.75;;;10.30;54.70
64853;BME280;56050;55.558;-4.644;2022-09-17T00:43:47;102473.81;;;10.27;54.80
64853;BME280;56050;55.558;-4.644;2022-09-17T00:48:54;102465.97;;;10.22;54.84
64853;BME280;56050;55.558;-4.644;2022-09-17T00:51:28;102469.31;;;10.19;54.72
64853;BME280;56050;55.558;-4.644;2022-09-17T00:53:55;102468.09;;;10.17;54.75
64853;BME280;56050;55.558;-4.644;2022-09-17T00:56:30;102476.09;;;10.13;54.75
64853;BME280;56050;55.558;-4.644;2022-09-17T00:58:56;102477.84;;;10.09;54.72
64853;BME280;56050;55.558;-4.644;2022-09-17T01:01:22;102475.41;;;10.04;54.84
64853;BME280;56050;55.558;-4.644;2022-09-17T01:03:48;102476.75;;;9.98;54.88
64853;BME280;56050;55.558;-4.644;2022-09-17T01:06:32;102470.03;;;9.92;54.96
64853;BME280;56050;55.558;-4.644;2022-09-17T01:11:34;102464.19;;;9.90;55.00
64853;BME280;56050;55.558;-4.644;2022-09-17T01:20:06;102463.09;;;9.91;55.26
64853;BME280;56050;55.558;-4.644;2022-09-17T01:31:35;102468.91;;;9.81;55.20
64853;BME280;56050;55.558;-4.644;2022-09-17T01:34:17;102466.13;;;9.77;55.34
64853;BME280;56050;55.558;-4.644;2022-09-17T01:41:55;102459.06;;;9.61;55.44
64853;BME280;56050;55.558;-4.644;2022-09-17T01:47:23;102466.03;;;9.50;55.64
64853;BME280;56050;55.558;-4.644;2022-09-17T01:50:00;102460.53;;;9.46;55.74
64853;BME280;56050;55.558;-4.644;2022-09-17T01:52:28;102458.94;;;9.45;55.74
64853;BME280;56050;55.558;-4.644;2022-09-17T01:55:00;102457.72;;;9.42;55.77
64853;BME280;56050;55.558;-4.644;2022-09-17T01:57:49;102464.97;;;9.42;55.88
64853;BME280;56050;55.558;-4.644;2022-09-17T02:00:17;102463.09;;;9.42;55.80
64853;BME280;56050;55.558;-4.644;2022-09-17T02:02:53;102456.16;;;9.41;55.93
64853;BME280;56050;55.558;-4.644;2022-09-17T02:05:25;102464.66;;;9.43;55.81
64853;BME280;56050;55.558;-4.644;2022-09-17T02:08:02;102466.56;;;9.43;55.97
64853;BME280;56050;55.558;-4.644;2022-09-17T02:10:36;102457.38;;;9.44;55.91
64853;BME280;56050;55.558;-4.644;2022-09-17T02:13:19;102458.16;;;9.44;56.03
64853;BME280;56050;55.558;-4.644;2022-09-17T02:15:50;102458.94;;;9.45;56.15
64853;BME280;56050;55.558;-4.644;2022-09-17T02:18:38;102459.72;;;9.45;56.21
64853;BME280;56050;55.558;-4.644;2022-09-17T02:24:15;102459.72;;;9.45;56.04
64853;BME280;56050;55.558;-4.644;2022-09-17T02:27:21;102465.09;;;9.45;56.46
64853;BME280;56050;55.558;-4.644;2022-09-17T02:29:47;102461.41;;;9.50;56.33
64853;BME280;56050;55.558;-4.644;2022-09-17T02:32:13;102468.03;;;9.53;56.38
64853;BME280;56050;55.558;-4.644;2022-09-17T02:34:39;102463.78;;;9.52;56.33
64853;BME280;56050;55.558;-4.644;2022-09-17T02:37:05;102464.09;;;9.50;56.38
64853;BME280;56050;55.558;-4.644;2022-09-17T02:39:32;102465.53;;;9.48;56.46
64853;BME280;56050;55.558;-4.644;2022-09-17T02:55:24;102471.34;;;9.25;57.05
64853;BME280;56050;55.558;-4.644;2022-09-17T02:58:03;102472.16;;;9.26;57.07
64853;BME280;56050;55.558;-4.644;2022-09-17T03:00:31;102469.13;;;9.27;57.06
64853;BME280;56050;55.558;-4.644;2022-09-17T03:03:07;102472.16;;;9.26;57.17
64853;BME280;56050;55.558;-4.644;2022-09-17T03:05:35;102471.25;;;9.22;57.11
64853;BME280;56050;55.558;-4.644;2022-09-17T03:08:02;102472.91;;;9.14;57.03
64853;BME280;56050;55.558;-4.644;2022-09-17T03:10:27;102466.94;;;9.09;57.13
64853;BME280;56050;55.558;-4.644;2022-09-17T03:12:57;102471.44;;;9.05;57.05
64853;BME280;56050;55.558;-4.644;2022-09-17T03:15:22;102467.16;;;9.04;57.17
64853;BME280;56050;55.558;-4.644;2022-09-17T03:17:48;102469.53;;;9.05;57.38
64853;BME280;56050;55.558;-4.644;2022-09-17T03:20:13;102470.34;;;9.06;57.27
64853;BME280;56050;55.558;-4.644;2022-09-17T03:22:40;102463.38;;;9.05;57.23
64853;BME280;56050;55.558;-4.644;2022-09-17T03:25:06;102463.59;;;9.00;57.13
64853;BME280;56050;55.558;-4.644;2022-09-17T03:27:32;102469.50;;;8.93;57.12
64853;BME280;56050;55.558;-4.644;2022-09-17T03:29:57;102467.91;;;8.92;57.12
64853;BME280;56050;55.558;-4.644;2022-09-17T03:32:23;102462.88;;;8.91;57.22
64853;BME280;56050;55.558;-4.644;2022-09-17T03:34:49;102470.94;;;8.91;57.18
64853;BME280;56050;55.558;-4.644;2022-09-17T03:37:14;102473.19;;;8.89;57.33
64853;BME280;56050;55.558;-4.644;2022-09-17T03:39:40;102479.22;;;8.85;57.31
64853;BME280;56050;55.558;-4.644;2022-09-17T03:42:05;102480.69;;;8.83;57.35
64853;BME280;56050;55.558;-4.644;2022-09-17T03:44:31;102487.50;;;8.80;57.23
64853;BME280;56050;55.558;-4.644;2022-09-17T03:46:56;102480.41;;;8.76;57.22
64853;BME280;56050;55.558;-4.644;2022-09-17T03:49:22;102481.84;;;8.73;57.34
64853;BME280;56050;55.558;-4.644;2022-09-17T03:51:48;102484.88;;;8.72;57.56
64853;BME280;56050;55.558;-4.644;2022-09-17T03:54:14;102487.09;;;8.70;57.30
64853;BME280;56050;55.558;-4.644;2022-09-17T03:56:39;102490.91;;;8.69;57.44
64853;BME280;56050;55.558;-4.644;2022-09-17T03:59:05;102489.78;;;8.70;57.59
64853;BME280;56050;55.558;-4.644;2022-09-17T04:01:30;102488.88;;;8.66;57.53
64853;BME280;56050;55.558;-4.644;2022-09-17T04:03:56;102484.16;;;8.63;57.40
64853;BME280;56050;55.558;-4.644;2022-09-17T04:06:21;102481.81;;;8.61;57.50
64853;BME280;56050;55.558;-4.644;2022-09-17T04:08:46;102495.91;;;8.58;57.25
64853;BME280;56050;55.558;-4.644;2022-09-17T04:11:12;102483.28;;;8.59;57.51
64853;BME280;56050;55.558;-4.644;2022-09-17T04:13:38;102484.38;;;8.58;57.45
64853;BME280;56050;55.558;-4.644;2022-09-17T04:16:03;102488.16;;;8.57;57.52
64853;BME280;56050;55.558;-4.644;2022-09-17T04:18:29;102495.44;;;8.56;57.62
64853;BME280;56050;55.558;-4.644;2022-09-17T04:20:55;102488.06;;;8.53;57.52
64853;BME280;56050;55.558;-4.644;2022-09-17T04:23:21;102487.59;;;8.51;57.58
64853;BME280;56050;55.558;-4.644;2022-09-17T04:25:47;102486.69;;;8.47;57.58
64853;BME280;56050;55.558;-4.644;2022-09-17T04:28:13;102490.81;;;8.45;57.53
64853;BME280;56050;55.558;-4.644;2022-09-17T04:30:38;102489.22;;;8.44;57.59
64853;BME280;56050;55.558;-4.644;2022-09-17T04:33:04;102490.66;;;8.41;57.51
64853;BME280;56050;55.558;-4.644;2022-09-17T04:35:29;102497.78;;;8.37;57.61
64853;BME280;56050;55.558;-4.644;2022-09-17T04:37:56;102499.44;;;8.30;57.54
64853;BME280;56050;55.558;-4.644;2022-09-17T04:40:23;102487.63;;;8.22;57.69
64853;BME280;56050;55.558;-4.644;2022-09-17T04:42:53;102491.75;;;8.19;57.66
64853;BME280;56050;55.558;-4.644;2022-09-17T04:45:19;102489.72;;;8.16;57.65
64853;BME280;56050;55.558;-4.644;2022-09-17T04:47:45;102487.69;;;8.13;57.65
64853;BME280;56050;55.558;-4.644;2022-09-17T04:50:11;102493.69;;;8.10;57.91
64853;BME280;56050;55.558;-4.644;2022-09-17T04:52:36;102489.97;;;8.03;57.78
64853;BME280;56050;55.558;-4.644;2022-09-17T04:55:02;102497.41;;;7.97;58.05
64853;BME280;56050;55.558;-4.644;2022-09-17T04:57:27;102496.03;;;7.91;57.97
64853;BME280;56050;55.558;-4.644;2022-09-17T04:59:52;102493.06;;;7.84;57.92
64853;BME280;56050;55.558;-4.644;2022-09-17T05:02:18;102500.63;;;7.82;57.89
64853;BME280;56050;55.558;-4.644;2022-09-17T05:04:43;102499.84;;;7.82;57.94
64853;BME280;56050;55.558;-4.644;2022-09-17T05:07:08;102494.81;;;7.80;57.80
64853;BME280;56050;55.558;-4.644;2022-09-17T05:09:34;102495.28;;;7.82;57.84
64853;BME280;56050;55.558;-4.644;2022-09-17T05:11:59;102481.84;;;7.82;57.89
64853;BME280;56050;55.558;-4.644;2022-09-17T05:14:25;102488.81;;;7.83;57.80
64853;BME280;56050;55.558;-4.644;2022-09-17T05:16:50;102480.13;;;7.86;57.92
64853;BME280;56050;55.558;-4.644;2022-09-17T05:19:16;102480.91;;;7.87;57.92
64853;BME280;56050;55.558;-4.644;2022-09-17T05:21:41;102477.88;;;7.88;57.65
64853;BME280;56050;55.558;-4.644;2022-09-17T05:24:06;102482.94;;;7.90;57.72
64853;BME280;56050;55.558;-4.644;2022-09-17T05:26:33;102489.56;;;7.92;57.82
64853;BME280;56050;55.558;-4.644;2022-09-17T05:28:58;102490.81;;;7.95;57.79
64853;BME280;56050;55.558;-4.644;2022-09-17T05:31:23;102491.25;;;7.97;57.85
64853;BME280;56050;55.558;-4.644;2022-09-17T05:33:49;102486.69;;;7.97;57.98
64853;BME280;56050;55.558;-4.644;2022-09-17T05:36:14;102494.41;;;7.99;58.17
64853;BME280;56050;55.558;-4.644;2022-09-17T05:38:40;102486.34;;;7.99;58.08
64853;BME280;56050;55.558;-4.644;2022-09-17T05:41:05;102487.72;;;8.05;57.92
64853;BME280;56050;55.558;-4.644;2022-09-17T05:43:31;102499.50;;;8.12;57.84
64853;BME280;56050;55.558;-4.644;2022-09-17T05:46:02;102487.47;;;8.18;58.02
64853;BME280;56050;55.558;-4.644;2022-09-17T05:48:27;102496.91;;;8.24;57.90
64853;BME280;56050;55.558;-4.644;2022-09-17T05:50:54;102496.44;;;8.31;57.89
64853;BME280;56050;55.558;-4.644;2022-09-17T05:53:19;102493.56;;;8.36;58.10
64853;BME280;56050;55.558;-4.644;2022-09-17T05:55:45;102489.56;;;8.42;57.91
64853;BME280;56050;55.558;-4.644;2022-09-17T05:58:12;102491.25;;;8.47;57.97
64853;BME280;56050;55.558;-4.644;2022-09-17T06:00:38;102499.13;;;8.52;57.84
64853;BME280;56050;55.558;-4.644;2022-09-17T06:03:04;102496.56;;;8.55;57.87
64853;BME280;56050;55.558;-4.644;2022-09-17T06:05:29;102486.72;;;8.59;57.97
64853;BME280;56050;55.558;-4.644;2022-09-17T06:07:55;102493.81;;;8.64;57.93
64853;BME280;56050;55.558;-4.644;2022-09-17T06:10:20;102484.63;;;8.65;57.73
64853;BME280;56050;55.558;-4.644;2022-09-17T06:12:45;102495.16;;;8.70;57.85
64853;BME280;56050;55.558;-4.644;2022-09-17T06:15:11;102492.75;;;8.77;57.85
64853;BME280;56050;55.558;-4.644;2022-09-17T06:17:39;102491.44;;;8.83;57.69
64853;BME280;56050;55.558;-4.644;2022-09-17T06:20:05;102493.09;;;8.88;57.67
64853;BME280;56050;55.558;-4.644;2022-09-17T06:22:31;102494.94;;;8.96;57.66
64853;BME280;56050;55.558;-4.644;2022-09-17T06:24:56;102500.56;;;9.03;57.59
64853;BME280;56050;55.558;-4.644;2022-09-17T06:27:28;102497.00;;;9.11;57.49
64853;BME280;56050;55.558;-4.644;2022-09-17T06:29:54;102498.69;;;9.15;57.46
64853;BME280;56050;55.558;-4.644;2022-09-17T06:32:19;102496.91;;;9.19;57.41
64853;BME280;56050;55.558;-4.644;2022-09-17T06:34:45;102489.72;;;9.23;57.39
64853;BME280;56050;55.558;-4.644;2022-09-17T06:37:10;102490.66;;;9.27;57.47
64853;BME280;56050;55.558;-4.644;2022-09-17T06:39:35;102489.63;;;9.32;57.54
64853;BME280;56050;55.558;-4.644;2022-09-17T06:42:01;102494.78;;;9.37;57.61
64853;BME280;56050;55.558;-4.644;2022-09-17T06:44:27;102497.25;;;9.42;57.67
64853;BME280;56050;55.558;-4.644;2022-09-17T06:46:52;102490.56;;;9.48;57.72
64853;BME280;56050;55.558;-4.644;2022-09-17T06:49:18;102496.94;;;9.56;57.69
64853;BME280;56050;55.558;-4.644;2022-09-17T06:51:43;102501.47;;;9.64;57.76
64853;BME280;56050;55.558;-4.644;2022-09-17T06:54:09;102503.34;;;9.75;57.73
64853;BME280;56050;55.558;-4.644;2022-09-17T06:56:35;102502.91;;;9.85;57.69
64853;BME280;56050;55.558;-4.644;2022-09-17T06:59:01;102498.28;;;9.98;57.75
64853;BME280;56050;55.558;-4.644;2022-09-17T07:01:26;102502.09;;;10.09;57.67
64853;BME280;56050;55.558;-4.644;2022-09-17T07:03:52;102504.13;;;10.24;57.83
64853;BME280;56050;55.558;-4.644;2022-09-17T07:06:17;102514.84;;;10.36;57.87
64853;BME280;56050;55.558;-4.644;2022-09-17T07:08:43;102502.84;;;10.46;57.72
64853;BME280;56050;55.558;-4.644;2022-09-17T07:11:09;102495.72;;;10.53;57.63
64853;BME280;56050;55.558;-4.644;2022-09-17T07:13:34;102490.19;;;10.62;57.65
64853;BME280;56050;55.558;-4.644;2022-09-17T07:16:01;102493.88;;;10.70;57.82
64853;BME280;56050;55.558;-4.644;2022-09-17T07:18:27;102492.59;;;10.79;57.63
64853;BME280;56050;55.558;-4.644;2022-09-17T07:20:57;102498.38;;;10.93;57.78
64853;BME280;56050;55.558;-4.644;2022-09-17T07:23:24;102502.31;;;11.11;57.87
64853;BME280;56050;55.558;-4.644;2022-09-17T07:25:57;102500.84;;;11.30;58.01
64853;BME280;56050;55.558;-4.644;2022-09-17T07:28:24;102500.50;;;11.47;57.68
64853;BME280;56050;55.558;-4.644;2022-09-17T07:30:51;102501.66;;;11.61;57.59
64853;BME280;56050;55.558;-4.644;2022-09-17T07:33:20;102503.13;;;11.74;57.44
64853;BME280;56050;55.558;-4.644;2022-09-17T07:35:52;102493.03;;;11.87;57.30
64853;BME280;56050;55.558;-4.644;2022-09-17T07:38:17;102512.88;;;11.95;57.23
64853;BME280;56050;55.558;-4.644;2022-09-17T07:40:43;102499.53;;;12.02;57.25
64853;BME280;56050;55.558;-4.644;2022-09-17T07:43:08;102495.41;;;12.08;57.24
64853;BME280;56050;55.558;-4.644;2022-09-17T07:45:34;102500.19;;;12.14;57.33
64853;BME280;56050;55.558;-4.644;2022-09-17T07:47:59;102500.34;;;12.21;57.18
64853;BME280;56050;55.558;-4.644;2022-09-17T07:50:25;102495.09;;;12.28;57.27
64853;BME280;56050;55.558;-4.644;2022-09-17T07:52:50;102493.31;;;12.36;57.18
64853;BME280;56050;55.558;-4.644;2022-09-17T07:55:16;102499.31;;;12.45;57.04
64853;BME280;56050;55.558;-4.644;2022-09-17T07:57:41;102490.63;;;12.55;57.17
64853;BME280;56050;55.558;-4.644;2022-09-17T08:00:07;102485.00;;;12.64;56.99
64853;BME280;56050;55.558;-4.644;2022-09-17T08:02:33;102481.00;;;12.77;57.22
64853;BME280;56050;55.558;-4.644;2022-09-17T08:04:58;102479.34;;;12.91;57.23
64853;BME280;56050;55.558;-4.644;2022-09-17T08:07:24;102473.84;;;13.07;57.10
64853;BME280;56050;55.558;-4.644;2022-09-17T08:09:49;102480.31;;;13.22;57.27
64853;BME280;56050;55.558;-4.644;2022-09-17T08:12:15;102469.00;;;13.39;57.23
64853;BME280;56050;55.558;-4.644;2022-09-17T08:14:42;102470.44;;;13.56;57.14
64853;BME280;56050;55.558;-4.644;2022-09-17T08:17:08;102475.31;;;13.73;57.11
64853;BME280;56050;55.558;-4.644;2022-09-17T08:19:33;102474.78;;;13.90;57.05
64853;BME280;56050;55.558;-4.644;2022-09-17T08:21:59;102485.09;;;14.07;56.94
64853;BME280;56050;55.558;-4.644;2022-09-17T08:24:24;102493.03;;;14.23;56.92
64853;BME280;56050;55.558;-4.644;2022-09-17T08:26:50;102490.94;;;14.39;56.88
64853;BME280;56050;55.558;-4.644;2022-09-17T08:29:15;102491.91;;;14.53;56.51
64853;BME280;56050;55.558;-4.644;2022-09-17T08:31:41;102496.66;;;14.60;56.40
64853;BME280;56050;55.558;-4.644;2022-09-17T08:34:07;102490.50;;;14.63;56.47
64853;BME280;56050;55.558;-4.644;2022-09-17T08:36:34;102491.28;;;14.63;56.60
64853;BME280;56050;55.558;-4.644;2022-09-17T08:38:59;102491.22;;;14.60;56.63
64853;BME280;56050;55.558;-4.644;2022-09-17T08:44:39;102491.22;;;14.60;56.67
64853;BME280;56050;55.558;-4.644;2022-09-17T08:47:24;102497.38;;;14.57;56.79
64853;BME280;56050;55.558;-4.644;2022-09-17T08:49:52;102506.66;;;14.56;56.84
64853;BME280;56050;55.558;-4.644;2022-09-17T08:52:23;102501.25;;;14.56;56.80
64853;BME280;56050;55.558;-4.644;2022-09-17T08:57:56;102512.38;;;14.47;56.57
64853;BME280;56050;55.558;-4.644;2022-09-17T09:00:31;102499.53;;;14.44;56.50
64853;BME280;56050;55.558;-4.644;2022-09-17T09:05:54;102497.59;;;14.41;56.40
64853;BME280;56050;55.558;-4.644;2022-09-17T09:08:47;102503.38;;;14.40;56.12
64853;BME280;56050;55.558;-4.644;2022-09-17T09:11:20;102519.28;;;14.41;56.12
64853;BME280;56050;55.558;-4.644;2022-09-17T09:13:54;102513.41;;;14.36;56.00
64853;BME280;56050;55.558;-4.644;2022-09-17T09:16:24;102514.13;;;14.33;56.10
64853;BME280;56050;55.558;-4.644;2022-09-17T09:18:55;102514.84;;;14.30;56.03
64853;BME280;56050;55.558;-4.644;2022-09-17T09:21:38;102510.16;;;14.27;56.04
64853;BME280;56050;55.558;-4.644;2022-09-17T09:24:40;102505.88;;;14.26;55.95
64853;BME280;56050;55.558;-4.644;2022-09-17T09:27:18;102511.66;;;14.24;55.70
64853;BME280;56050;55.558;-4.644;2022-09-17T09:35:41;102498.66;;;14.33;55.54
64853;BME280;56050;55.558;-4.644;2022-09-17T09:40:47;102503.88;;;14.49;55.02
64853;BME280;56050;55.558;-4.644;2022-09-17T09:43:21;102516.00;;;14.58;55.01
64853;BME280;56050;55.558;-4.644;2022-09-17T09:54:49;102512.56;;;14.98;54.32
64853;BME280;56050;55.558;-4.644;2022-09-17T09:57:28;102511.88;;;15.05;54.27
64853;BME280;56050;55.558;-4.644;2022-09-17T10:02:54;102513.13;;;15.14;53.91
64853;BME280;56050;55.558;-4.644;2022-09-17T10:05:21;102506.19;;;15.20;54.10
64853;BME280;56050;55.558;-4.644;2022-09-17T10:07:46;102512.44;;;15.24;53.95
64853;BME280;56050;55.558;-4.644;2022-09-17T10:10:11;102512.91;;;15.34;53.91
64853;BME280;56050;55.558;-4.644;2022-09-17T10:12:37;102512.19;;;15.40;53.91
64853;BME280;56050;55.558;-4.644;2022-09-17T10:15:22;102511.84;;;15.45;53.70
64853;BME280;56050;55.558;-4.644;2022-09-17T10:17:48;102512.31;;;15.51;53.64
64853;BME280;56050;55.558;-4.644;2022-09-17T10:20:16;102518.53;;;15.55;53.23
64853;BME280;56050;55.558;-4.644;2022-09-17T10:22:45;102508.44;;;15.52;53.27
64853;BME280;56050;55.558;-4.644;2022-09-17T10:25:32;102512.28;;;15.47;53.13
64853;BME280;56050;55.558;-4.644;2022-09-17T10:28:02;102502.19;;;15.48;53.55
64853;BME280;56050;55.558;-4.644;2022-09-17T10:30:28;102495.63;;;15.52;53.41
64853;BME280;56050;55.558;-4.644;2022-09-17T10:35:38;102492.94;;;15.56;53.30
64853;BME280;56050;55.558;-4.644;2022-09-17T10:38:03;102492.53;;;15.54;53.45
64853;BME280;56050;55.558;-4.644;2022-09-17T10:40:31;102489.03;;;15.53;53.39
64853;BME280;56050;55.558;-4.644;2022-09-17T10:45:42;102479.69;;;15.47;52.59
64853;BME280;56050;55.558;-4.644;2022-09-17T10:48:18;102474.97;;;15.41;52.57
64853;BME280;56050;55.558;-4.644;2022-09-17T10:50:52;102482.69;;;15.39;52.60
64853;BME280;56050;55.558;-4.644;2022-09-17T10:53:20;102478.44;;;15.38;52.44
64853;BME280;56050;55.558;-4.644;2022-09-17T10:58:53;102470.59;;;15.29;52.67
64853;BME280;56050;55.558;-4.644;2022-09-17T11:09:51;102471.03;;;15.35;52.63
64853;BME280;56050;55.558;-4.644;2022-09-17T11:12:29;102465.59;;;15.35;52.28
64853;BME280;56050;55.558;-4.644;2022-09-17T11:15:39;102466.38;;;15.35;52.63
64853;BME280;56050;55.558;-4.644;2022-09-17T11:18:44;102474.97;;;15.41;52.58
64853;BME280;56050;55.558;-4.644;2022-09-17T11:21:24;102457.59;;;15.49;52.68
64853;BME280;56050;55.558;-4.644;2022-09-17T11:26:36;102473.16;;;15.55;51.60
64853;BME280;56050;55.558;-4.644;2022-09-17T11:34:39;102461.09;;;15.53;51.43
64853;BME280;56050;55.558;-4.644;2022-09-17T11:37:18;102459.53;;;15.48;51.03
64853;BME280;56050;55.558;-4.644;2022-09-17T11:39:55;102448.19;;;15.43;51.03
64853;BME280;56050;55.558;-4.644;2022-09-17T11:42:35;102454.81;;;15.45;51.09
64853;BME280;56050;55.558;-4.644;2022-09-17T11:45:15;102439.31;;;15.46;51.31
64853;BME280;56050;55.558;-4.644;2022-09-17T11:47:57;102459.13;;;15.50;51.68
64853;BME280;56050;55.558;-4.644;2022-09-17T11:50:31;102465.75;;;15.52;51.66
64853;BME280;56050;55.558;-4.644;2022-09-17T11:53:34;102452.59;;;15.58;51.40
64853;BME280;56050;55.558;-4.644;2022-09-17T11:57:06;102453.44;;;15.65;50.91
64853;BME280;56050;55.558;-4.644;2022-09-17T11:59:38;102445.72;;;15.74;50.83
64853;BME280;56050;55.558;-4.644;2022-09-17T12:02:24;102434.50;;;15.79;50.39
64853;BME280;56050;55.558;-4.644;2022-09-17T12:07:27;102437.28;;;15.90;50.15
64853;BME280;56050;55.558;-4.644;2022-09-17T12:10:00;102436.53;;;15.93;50.31
64853;BME280;56050;55.558;-4.644;2022-09-17T12:12:27;102433.44;;;15.98;49.97
64853;BME280;56050;55.558;-4.644;2022-09-17T12:15:16;102430.31;;;16.00;49.79
64853;BME280;56050;55.558;-4.644;2022-09-17T12:17:54;102431.91;;;16.04;49.62
64853;BME280;56050;55.558;-4.644;2022-09-17T12:20:30;102436.19;;;16.09;49.68
64853;BME280;56050;55.558;-4.644;2022-09-17T12:22:59;102433.91;;;16.14;49.98
64853;BME280;56050;55.558;-4.644;2022-09-17T12:25:33;102428.84;;;16.16;49.47
64853;BME280;56050;55.558;-4.644;2022-09-17T12:28:23;102430.00;;;16.19;49.19
64853;BME280;56050;55.558;-4.644;2022-09-17T12:31:15;102423.41;;;16.16;48.79
64853;BME280;56050;55.558;-4.644;2022-09-17T12:33:54;102424.59;;;16.15;48.53
64853;BME280;56050;55.558;-4.644;2022-09-17T12:41:33;102428.00;;;16.05;48.53
64853;BME280;56050;55.558;-4.644;2022-09-17T12:49:53;102422.97;;;16.04;48.64
64853;BME280;56050;55.558;-4.644;2022-09-17T13:00:43;102416.44;;;16.15;49.67
64853;BME280;56050;55.558;-4.644;2022-09-17T13:03:47;102405.94;;;16.17;49.79
64853;BME280;56050;55.558;-4.644;2022-09-17T13:09:50;102397.81;;;16.21;50.88
64853;BME280;56050;55.558;-4.644;2022-09-17T13:14:28;102394.69;;;16.22;50.90
64853;BME280;56050;55.558;-4.644;2022-09-17T13:17:17;102391.16;;;16.18;51.22
64853;BME280;56050;55.558;-4.644;2022-09-17T13:22:45;102389.63;;;16.17;51.49
64853;BME280;56050;55.558;-4.644;2022-09-17T13:25:14;102388.44;;;16.18;51.31
64853;BME280;56050;55.558;-4.644;2022-09-17T13:27:41;102385.72;;;16.18;51.36
64853;BME280;56050;55.558;-4.644;2022-09-17T13:30:08;102390.41;;;16.21;51.27
64853;BME280;56050;55.558;-4.644;2022-09-17T13:37:42;102383.78;;;16.19;51.36
64853;BME280;56050;55.558;-4.644;2022-09-17T13:40:30;102388.44;;;16.18;51.10
64853;BME280;56050;55.558;-4.644;2022-09-17T13:45:28;102384.22;;;16.21;51.16
64853;BME280;56050;55.558;-4.644;2022-09-17T13:50:34;102375.66;;;16.26;50.97
64853;BME280;56050;55.558;-4.644;2022-09-17T13:55:36;102368.69;;;16.32;51.02
64853;BME280;56050;55.558;-4.644;2022-09-17T13:58:03;102361.31;;;16.36;51.07
64853;BME280;56050;55.558;-4.644;2022-09-17T14:01:04;102359.38;;;16.36;51.15
64853;BME280;56050;55.558;-4.644;2022-09-17T14:16:44;102352.34;;;16.28;51.30
64853;BME280;56050;55.558;-4.644;2022-09-17T14:19:44;102358.94;;;16.27;50.90
64853;BME280;56050;55.558;-4.644;2022-09-17T14:22:29;102355.47;;;16.30;51.60
64853;BME280;56050;55.558;-4.644;2022-09-17T14:24:54;102352.41;;;16.42;51.23
64853;BME280;56050;55.558;-4.644;2022-09-17T14:35:28;102348.16;;;16.77;50.24
64853;BME280;56050;55.558;-4.644;2022-09-17T14:38:02;102346.22;;;16.70;50.42
64853;BME280;56050;55.558;-4.644;2022-09-17T14:40:33;102350.50;;;16.68;50.47
64853;BME280;56050;55.558;-4.644;2022-09-17T14:42:59;102346.59;;;16.69;50.32
64853;BME280;56050;55.558;-4.644;2022-09-17T14:45:30;102343.50;;;16.70;50.21
64853;BME280;56050;55.558;-4.644;2022-09-17T14:48:28;102341.94;;;16.69;49.73
64853;BME280;56050;55.558;-4.644;2022-09-17T14:53:42;102337.28;;;16.66;49.39
64853;BME280;56050;55.558;-4.644;2022-09-17T14:56:10;102334.94;;;16.68;49.42
64853;BME280;56050;55.558;-4.644;2022-09-17T14:58:41;102322.50;;;16.71;49.48
64853;BME280;56050;55.558;-4.644;2022-09-17T15:01:22;102325.22;;;16.71;49.65
64853;BME280;56050;55.558;-4.644;2022-09-17T15:03:48;102313.97;;;16.72;49.57
64853;BME280;56050;55.558;-4.644;2022-09-17T15:06:21;102319.03;;;16.70;49.64
64853;BME280;56050;55.558;-4.644;2022-09-17T15:08:47;102316.66;;;16.65;49.77
64853;BME280;56050;55.558;-4.644;2022-09-17T15:11:13;102309.69;;;16.61;49.50
64853;BME280;56050;55.558;-4.644;2022-09-17T15:13:51;102310.06;;;16.56;49.59
64853;BME280;56050;55.558;-4.644;2022-09-17T15:16:21;102312.38;;;16.57;49.56
64853;BME280;56050;55.558;-4.644;2022-09-17T15:18:52;102312.03;;;16.62;49.84
64853;BME280;56050;55.558;-4.644;2022-09-17T15:21:43;102321.34;;;16.68;49.59
64853;BME280;56050;55.558;-4.644;2022-09-17T15:26:36;102317.84;;;16.75;49.45
64853;BME280;56050;55.558;-4.644;2022-09-17T15:29:04;102320.16;;;16.76;49.21
64853;BME280;56050;55.558;-4.644;2022-09-17T15:31:30;102316.69;;;16.76;49.10
64853;BME280;56050;55.558;-4.644;2022-09-17T15:33:58;102317.06;;;16.74;48.93
64853;BME280;56050;55.558;-4.644;2022-09-17T15:36:25;102324.44;;;16.74;49.25
64853;BME280;56050;55.558;-4.644;2022-09-17T15:38:56;102333.38;;;16.71;48.84
64853;BME280;56050;55.558;-4.644;2022-09-17T15:41:35;102321.34;;;16.61;49.28
64853;BME280;56050;55.558;-4.644;2022-09-17T15:44:19;102318.63;;;16.54;49.90
64853;BME280;56050;55.558;-4.644;2022-09-17T15:46:45;102313.94;;;16.55;50.15
64853;BME280;56050;55.558;-4.644;2022-09-17T15:49:31;102318.19;;;16.52;50.25